Capitol Logistics 233




KMIA
Miami International Airport
Miami, Florida
KTLH
Tallahassee International Airport
Tallahassee, Florida

Activity Log

Date Flight Route Aircraft Duration
08/23/2021 CPX3272 WINCO2 WINCO V521 RSW V7 CODYS SF34 1h 53m
04/11/2021 CPX3272 WINCO2 WINCO CHRRI SMELZ PATOY JAWJA SF34 1h 46m
03/31/2021 CPX3272 WINCO2 WINCO V97 HEVVN FEKBA SF34 1h 44m
06/08/2019 CPX672 WINCO2 WINCO CHRRI SMELZ PATOY JAWJA SF34 1h 38m

Route Details

Aircraft Information
Group: Narrowbodies
Types: B738,B752
Route Data
Demand: V
Distance: 350nm
Duration: 1h 39m
Recm'd Route: WINCO2 WINCO CHRRI SMELZ PATOY JAWJA
Origin Wx: KMIA 070253Z 25003KT 10SM FEW010 FEW045 24/23 A3009 RMK AO2 SLP188 T02390228 51007 $
Dest. Wx: KTLH 070253Z 03005KT 10SM BKN041 OVC060 18/16 A3010 RMK AO2 RAB04E46 SLP192 P0001 60001 T01780161 51012
Notes:

Financial History
Total Freight: 19,465lbs
Average Load: 4,866lbs/flt
Fuel Used: 6,348lbs
Avg. Fuel Used: 1,587lbs/flt
Fuel Expense: $6,458
Avg. Fuel Expense: $1,614
Avg. Fuel Cost: $1.04/lbs
Total Gross Income: $24,194
Pilot Pay: $916
Total Expenses: $3,941
Total Revenue: $12,153
Average Revenue: $6,048.39